sensor_id;sensor_type;location;lat;lon;timestamp;P1;durP1;ratioP1;P2;durP2;ratioP2
15871;SDS011;8035;51.962;7.162;2023-08-31T00:00:05;7.37;;;4.07;;
15871;SDS011;8035;51.962;7.162;2023-08-31T00:02:34;8.93;;;4.40;;
15871;SDS011;8035;51.962;7.162;2023-08-31T00:05:00;5.47;;;3.93;;
15871;SDS011;8035;51.962;7.162;2023-08-31T00:07:25;7.33;;;4.23;;
15871;SDS011;8035;51.962;7.162;2023-08-31T00:09:51;6.87;;;4.60;;
15871;SDS011;8035;51.962;7.162;2023-08-31T00:12:16;6.83;;;4.60;;
15871;SDS011;8035;51.962;7.162;2023-08-31T00:14:42;4.97;;;3.27;;
15871;SDS011;8035;51.962;7.162;2023-08-31T00:17:07;5.53;;;3.93;;
15871;SDS011;8035;51.962;7.162;2023-08-31T00:19:33;7.33;;;4.50;;
15871;SDS011;8035;51.962;7.162;2023-08-31T00:21:59;6.70;;;4.67;;
15871;SDS011;8035;51.962;7.162;2023-08-31T00:24:24;13.20;;;4.77;;
15871;SDS011;8035;51.962;7.162;2023-08-31T00:26:55;5.13;;;4.20;;
15871;SDS011;8035;51.962;7.162;2023-08-31T00:29:20;4.53;;;3.80;;
15871;SDS011;8035;51.962;7.162;2023-08-31T00:31:46;5.80;;;4.13;;
15871;SDS011;8035;51.962;7.162;2023-08-31T00:34:13;5.70;;;4.53;;
15871;SDS011;8035;51.962;7.162;2023-08-31T00:36:39;8.93;;;4.40;;
15871;SDS011;8035;51.962;7.162;2023-08-31T00:39:05;8.07;;;4.37;;
15871;SDS011;8035;51.962;7.162;2023-08-31T00:41:31;8.33;;;4.47;;
15871;SDS011;8035;51.962;7.162;2023-08-31T00:43:57;6.03;;;4.07;;
15871;SDS011;8035;51.962;7.162;2023-08-31T00:46:23;7.37;;;4.17;;
15871;SDS011;8035;51.962;7.162;2023-08-31T00:48:49;4.63;;;3.80;;
15871;SDS011;8035;51.962;7.162;2023-08-31T00:51:15;6.70;;;3.80;;
15871;SDS011;8035;51.962;7.162;2023-08-31T00:53:40;5.93;;;4.03;;
15871;SDS011;8035;51.962;7.162;2023-08-31T00:56:06;4.87;;;4.20;;
15871;SDS011;8035;51.962;7.162;2023-08-31T00:58:33;6.50;;;3.83;;
15871;SDS011;8035;51.962;7.162;2023-08-31T01:01:12;5.20;;;4.30;;
15871;SDS011;8035;51.962;7.162;2023-08-31T01:06:35;6.43;;;4.73;;
15871;SDS011;8035;51.962;7.162;2023-08-31T01:09:15;7.53;;;4.00;;
15871;SDS011;8035;51.962;7.162;2023-08-31T01:12:04;4.90;;;4.30;;
15871;SDS011;8035;51.962;7.162;2023-08-31T01:14:39;4.70;;;3.70;;
15871;SDS011;8035;51.962;7.162;2023-08-31T01:17:08;5.00;;;3.50;;
15871;SDS011;8035;51.962;7.162;2023-08-31T01:22:16;6.00;;;4.10;;
15871;SDS011;8035;51.962;7.162;2023-08-31T01:24:52;6.83;;;3.83;;
15871;SDS011;8035;51.962;7.162;2023-08-31T01:27:18;4.60;;;3.17;;
15871;SDS011;8035;51.962;7.162;2023-08-31T01:29:45;5.43;;;3.40;;
15871;SDS011;8035;51.962;7.162;2023-08-31T01:32:10;4.80;;;3.23;;
15871;SDS011;8035;51.962;7.162;2023-08-31T01:34:36;5.83;;;3.70;;
15871;SDS011;8035;51.962;7.162;2023-08-31T01:37:06;5.97;;;3.40;;
15871;SDS011;8035;51.962;7.162;2023-08-31T01:42:26;3.83;;;3.17;;
15871;SDS011;8035;51.962;7.162;2023-08-31T01:44:53;4.30;;;3.33;;
15871;SDS011;8035;51.962;7.162;2023-08-31T01:47:22;4.80;;;3.50;;
15871;SDS011;8035;51.962;7.162;2023-08-31T01:49:47;4.83;;;3.27;;
15871;SDS011;8035;51.962;7.162;2023-08-31T01:52:13;5.57;;;3.13;;
15871;SDS011;8035;51.962;7.162;2023-08-31T01:54:38;5.33;;;3.10;;
15871;SDS011;8035;51.962;7.162;2023-08-31T01:57:04;3.47;;;2.70;;
15871;SDS011;8035;51.962;7.162;2023-08-31T01:59:31;4.10;;;3.00;;
15871;SDS011;8035;51.962;7.162;2023-08-31T02:01:57;7.40;;;3.60;;
15871;SDS011;8035;51.962;7.162;2023-08-31T02:04:23;4.93;;;3.70;;
15871;SDS011;8035;51.962;7.162;2023-08-31T02:06:48;6.10;;;2.90;;
15871;SDS011;8035;51.962;7.162;2023-08-31T02:09:14;7.03;;;3.40;;
15871;SDS011;8035;51.962;7.162;2023-08-31T02:11:40;3.90;;;3.37;;
15871;SDS011;8035;51.962;7.162;2023-08-31T02:14:05;4.40;;;3.33;;
15871;SDS011;8035;51.962;7.162;2023-08-31T02:16:32;4.37;;;3.60;;
15871;SDS011;8035;51.962;7.162;2023-08-31T02:18:58;4.03;;;3.63;;
15871;SDS011;8035;51.962;7.162;2023-08-31T02:21:24;5.90;;;3.90;;
15871;SDS011;8035;51.962;7.162;2023-08-31T02:23:49;5.33;;;3.67;;
15871;SDS011;8035;51.962;7.162;2023-08-31T02:26:15;5.03;;;3.97;;
15871;SDS011;8035;51.962;7.162;2023-08-31T02:28:40;5.30;;;3.73;;
15871;SDS011;8035;51.962;7.162;2023-08-31T02:31:06;5.43;;;4.17;;
15871;SDS011;8035;51.962;7.162;2023-08-31T02:33:32;5.93;;;4.83;;
15871;SDS011;8035;51.962;7.162;2023-08-31T02:35:58;5.97;;;4.30;;
15871;SDS011;8035;51.962;7.162;2023-08-31T02:38:23;4.93;;;4.10;;
15871;SDS011;8035;51.962;7.162;2023-08-31T02:40:49;5.50;;;4.17;;
15871;SDS011;8035;51.962;7.162;2023-08-31T02:43:15;6.00;;;4.30;;
15871;SDS011;8035;51.962;7.162;2023-08-31T02:45:40;6.20;;;4.33;;
15871;SDS011;8035;51.962;7.162;2023-08-31T02:48:09;6.33;;;4.40;;
15871;SDS011;8035;51.962;7.162;2023-08-31T02:50:35;6.63;;;4.57;;
15871;SDS011;8035;51.962;7.162;2023-08-31T02:53:00;4.97;;;4.40;;
15871;SDS011;8035;51.962;7.162;2023-08-31T02:55:26;7.63;;;4.30;;
15871;SDS011;8035;51.962;7.162;2023-08-31T02:57:52;7.67;;;4.97;;
15871;SDS011;8035;51.962;7.162;2023-08-31T03:00:18;6.87;;;5.10;;
15871;SDS011;8035;51.962;7.162;2023-08-31T03:02:46;7.30;;;5.03;;
15871;SDS011;8035;51.962;7.162;2023-08-31T03:05:12;8.33;;;5.73;;
15871;SDS011;8035;51.962;7.162;2023-08-31T03:07:38;5.60;;;5.07;;
15871;SDS011;8035;51.962;7.162;2023-08-31T03:10:04;7.10;;;5.53;;
15871;SDS011;8035;51.962;7.162;2023-08-31T03:12:30;7.40;;;6.00;;
15871;SDS011;8035;51.962;7.162;2023-08-31T03:14:56;8.93;;;6.17;;
15871;SDS011;8035;51.962;7.162;2023-08-31T03:17:21;10.57;;;6.80;;
15871;SDS011;8035;51.962;7.162;2023-08-31T03:19:47;8.63;;;6.10;;
15871;SDS011;8035;51.962;7.162;2023-08-31T03:22:12;8.50;;;6.40;;
15871;SDS011;8035;51.962;7.162;2023-08-31T03:24:38;11.23;;;8.37;;
15871;SDS011;8035;51.962;7.162;2023-08-31T03:27:03;9.83;;;6.60;;
15871;SDS011;8035;51.962;7.162;2023-08-31T03:29:29;8.60;;;7.20;;
15871;SDS011;8035;51.962;7.162;2023-08-31T03:31:56;9.50;;;7.60;;
15871;SDS011;8035;51.962;7.162;2023-08-31T03:34:22;9.83;;;7.73;;
15871;SDS011;8035;51.962;7.162;2023-08-31T03:36:48;9.60;;;8.07;;
15871;SDS011;8035;51.962;7.162;2023-08-31T03:39:15;10.10;;;7.47;;
15871;SDS011;8035;51.962;7.162;2023-08-31T03:41:40;8.90;;;7.70;;
15871;SDS011;8035;51.962;7.162;2023-08-31T03:44:06;10.17;;;7.93;;
15871;SDS011;8035;51.962;7.162;2023-08-31T03:46:31;8.87;;;7.70;;
15871;SDS011;8035;51.962;7.162;2023-08-31T03:48:57;10.20;;;7.63;;
15871;SDS011;8035;51.962;7.162;2023-08-31T03:51:22;11.57;;;7.20;;
15871;SDS011;8035;51.962;7.162;2023-08-31T03:53:48;9.07;;;7.33;;
15871;SDS011;8035;51.962;7.162;2023-08-31T03:56:13;9.20;;;7.30;;
15871;SDS011;8035;51.962;7.162;2023-08-31T03:58:39;7.47;;;6.73;;
15871;SDS011;8035;51.962;7.162;2023-08-31T04:01:05;12.27;;;8.23;;
15871;SDS011;8035;51.962;7.162;2023-08-31T04:03:31;11.60;;;8.37;;
15871;SDS011;8035;51.962;7.162;2023-08-31T04:05:56;12.37;;;8.20;;
15871;SDS011;8035;51.962;7.162;2023-08-31T04:08:22;9.50;;;8.30;;
15871;SDS011;8035;51.962;7.162;2023-08-31T04:10:47;10.37;;;8.57;;
15871;SDS011;8035;51.962;7.162;2023-08-31T04:13:13;11.07;;;9.37;;
15871;SDS011;8035;51.962;7.162;2023-08-31T04:15:38;10.33;;;8.07;;
15871;SDS011;8035;51.962;7.162;2023-08-31T04:18:04;9.57;;;8.57;;
15871;SDS011;8035;51.962;7.162;2023-08-31T04:20:30;10.63;;;8.30;;
15871;SDS011;8035;51.962;7.162;2023-08-31T04:22:57;13.37;;;8.27;;
15871;SDS011;8035;51.962;7.162;2023-08-31T04:25:23;11.57;;;8.97;;
15871;SDS011;8035;51.962;7.162;2023-08-31T04:27:48;10.70;;;9.07;;
15871;SDS011;8035;51.962;7.162;2023-08-31T04:30:14;9.90;;;8.20;;
15871;SDS011;8035;51.962;7.162;2023-08-31T04:32:40;10.20;;;8.40;;
15871;SDS011;8035;51.962;7.162;2023-08-31T04:35:06;12.30;;;9.63;;
15871;SDS011;8035;51.962;7.162;2023-08-31T04:37:32;11.60;;;9.20;;
15871;SDS011;8035;51.962;7.162;2023-08-31T04:39:58;9.20;;;8.20;;
15871;SDS011;8035;51.962;7.162;2023-08-31T04:42:24;12.97;;;8.77;;
15871;SDS011;8035;51.962;7.162;2023-08-31T04:44:49;15.23;;;10.07;;
15871;SDS011;8035;51.962;7.162;2023-08-31T04:47:15;11.07;;;9.23;;
15871;SDS011;8035;51.962;7.162;2023-08-31T04:49:40;11.43;;;9.20;;
15871;SDS011;8035;51.962;7.162;2023-08-31T04:52:06;10.50;;;9.43;;
15871;SDS011;8035;51.962;7.162;2023-08-31T04:54:32;12.33;;;10.17;;
15871;SDS011;8035;51.962;7.162;2023-08-31T04:56:57;15.17;;;11.23;;
15871;SDS011;8035;51.962;7.162;2023-08-31T04:59:23;11.80;;;10.40;;
15871;SDS011;8035;51.962;7.162;2023-08-31T05:01:48;13.60;;;10.73;;
15871;SDS011;8035;51.962;7.162;2023-08-31T05:04:14;14.93;;;11.10;;
15871;SDS011;8035;51.962;7.162;2023-08-31T05:06:39;13.73;;;11.10;;
15871;SDS011;8035;51.962;7.162;2023-08-31T05:09:05;13.93;;;11.57;;
15871;SDS011;8035;51.962;7.162;2023-08-31T05:11:31;14.63;;;12.13;;
15871;SDS011;8035;51.962;7.162;2023-08-31T05:13:56;13.57;;;11.90;;
15871;SDS011;8035;51.962;7.162;2023-08-31T05:16:22;13.33;;;11.60;;
15871;SDS011;8035;51.962;7.162;2023-08-31T05:18:48;13.10;;;11.47;;
15871;SDS011;8035;51.962;7.162;2023-08-31T05:21:14;12.77;;;11.47;;
15871;SDS011;8035;51.962;7.162;2023-08-31T05:23:40;14.57;;;11.93;;
15871;SDS011;8035;51.962;7.162;2023-08-31T05:26:05;16.50;;;12.20;;
15871;SDS011;8035;51.962;7.162;2023-08-31T05:28:31;14.40;;;12.03;;
15871;SDS011;8035;51.962;7.162;2023-08-31T05:30:57;15.23;;;11.60;;
15871;SDS011;8035;51.962;7.162;2023-08-31T05:33:25;13.80;;;11.70;;
15871;SDS011;8035;51.962;7.162;2023-08-31T05:35:52;14.00;;;12.17;;
15871;SDS011;8035;51.962;7.162;2023-08-31T05:38:18;16.03;;;12.73;;
15871;SDS011;8035;51.962;7.162;2023-08-31T05:40:44;13.33;;;11.30;;
15871;SDS011;8035;51.962;7.162;2023-08-31T05:43:11;15.17;;;12.60;;
15871;SDS011;8035;51.962;7.162;2023-08-31T05:45:37;15.70;;;13.33;;
15871;SDS011;8035;51.962;7.162;2023-08-31T05:48:03;16.30;;;12.57;;
15871;SDS011;8035;51.962;7.162;2023-08-31T05:50:29;14.00;;;12.50;;
15871;SDS011;8035;51.962;7.162;2023-08-31T05:52:55;16.27;;;12.40;;
15871;SDS011;8035;51.962;7.162;2023-08-31T05:55:21;16.37;;;12.83;;
15871;SDS011;8035;51.962;7.162;2023-08-31T05:57:47;14.70;;;13.17;;
15871;SDS011;8035;51.962;7.162;2023-08-31T06:00:13;15.30;;;13.13;;
15871;SDS011;8035;51.962;7.162;2023-08-31T06:02:39;14.60;;;13.03;;
15871;SDS011;8035;51.962;7.162;2023-08-31T06:05:04;16.40;;;14.07;;
15871;SDS011;8035;51.962;7.162;2023-08-31T06:07:31;16.43;;;13.87;;
15871;SDS011;8035;51.962;7.162;2023-08-31T06:09:56;16.33;;;14.63;;
15871;SDS011;8035;51.962;7.162;2023-08-31T06:12:22;19.13;;;14.90;;
15871;SDS011;8035;51.962;7.162;2023-08-31T06:14:47;17.73;;;15.40;;
15871;SDS011;8035;51.962;7.162;2023-08-31T06:17:13;16.03;;;14.40;;
15871;SDS011;8035;51.962;7.162;2023-08-31T06:19:39;18.83;;;15.87;;
15871;SDS011;8035;51.962;7.162;2023-08-31T06:22:06;18.73;;;15.87;;
15871;SDS011;8035;51.962;7.162;2023-08-31T06:24:31;20.23;;;16.97;;
15871;SDS011;8035;51.962;7.162;2023-08-31T06:26:58;19.47;;;15.97;;
15871;SDS011;8035;51.962;7.162;2023-08-31T06:29:23;19.20;;;17.10;;
15871;SDS011;8035;51.962;7.162;2023-08-31T06:31:49;21.00;;;17.53;;
15871;SDS011;8035;51.962;7.162;2023-08-31T06:34:14;22.87;;;18.77;;
15871;SDS011;8035;51.962;7.162;2023-08-31T06:36:40;19.77;;;17.33;;
15871;SDS011;8035;51.962;7.162;2023-08-31T06:39:06;24.93;;;18.43;;
15871;SDS011;8035;51.962;7.162;2023-08-31T06:41:31;22.37;;;17.47;;
15871;SDS011;8035;51.962;7.162;2023-08-31T06:43:57;19.87;;;16.93;;
15871;SDS011;8035;51.962;7.162;2023-08-31T06:46:23;21.07;;;16.43;;
15871;SDS011;8035;51.962;7.162;2023-08-31T06:48:48;20.60;;;17.47;;
15871;SDS011;8035;51.962;7.162;2023-08-31T06:51:14;20.30;;;17.77;;
15871;SDS011;8035;51.962;7.162;2023-08-31T06:53:41;21.07;;;17.27;;
15871;SDS011;8035;51.962;7.162;2023-08-31T06:56:08;21.77;;;15.80;;
15871;SDS011;8035;51.962;7.162;2023-08-31T06:58:34;17.90;;;15.97;;
15871;SDS011;8035;51.962;7.162;2023-08-31T07:01:00;19.77;;;16.13;;
15871;SDS011;8035;51.962;7.162;2023-08-31T07:03:26;16.97;;;15.23;;
15871;SDS011;8035;51.962;7.162;2023-08-31T07:05:51;17.83;;;15.47;;
15871;SDS011;8035;51.962;7.162;2023-08-31T07:08:17;19.07;;;15.97;;
15871;SDS011;8035;51.962;7.162;2023-08-31T07:10:43;15.90;;;14.30;;
15871;SDS011;8035;51.962;7.162;2023-08-31T07:13:08;17.27;;;15.43;;
15871;SDS011;8035;51.962;7.162;2023-08-31T07:15:34;19.10;;;15.60;;
15871;SDS011;8035;51.962;7.162;2023-08-31T07:18:00;18.23;;;15.07;;
15871;SDS011;8035;51.962;7.162;2023-08-31T07:20:26;16.63;;;14.73;;
15871;SDS011;8035;51.962;7.162;2023-08-31T07:22:51;17.10;;;15.30;;
15871;SDS011;8035;51.962;7.162;2023-08-31T07:25:17;17.47;;;15.40;;
15871;SDS011;8035;51.962;7.162;2023-08-31T07:27:43;16.03;;;14.50;;
15871;SDS011;8035;51.962;7.162;2023-08-31T07:30:08;17.53;;;14.03;;
15871;SDS011;8035;51.962;7.162;2023-08-31T07:32:35;16.33;;;14.47;;
15871;SDS011;8035;51.962;7.162;2023-08-31T07:35:00;17.73;;;13.33;;
15871;SDS011;8035;51.962;7.162;2023-08-31T07:37:29;16.27;;;12.07;;
15871;SDS011;8035;51.962;7.162;2023-08-31T07:39:55;17.70;;;11.97;;
15871;SDS011;8035;51.962;7.162;2023-08-31T07:42:20;13.93;;;12.37;;
15871;SDS011;8035;51.962;7.162;2023-08-31T07:44:46;12.93;;;11.13;;
15871;SDS011;8035;51.962;7.162;2023-08-31T07:47:11;12.83;;;11.53;;
15871;SDS011;8035;51.962;7.162;2023-08-31T07:49:37;11.93;;;10.73;;
15871;SDS011;8035;51.962;7.162;2023-08-31T07:52:03;10.63;;;9.30;;
15871;SDS011;8035;51.962;7.162;2023-08-31T07:54:29;11.03;;;9.03;;
15871;SDS011;8035;51.962;7.162;2023-08-31T07:56:54;9.23;;;8.13;;
15871;SDS011;8035;51.962;7.162;2023-08-31T07:59:20;8.47;;;7.43;;
15871;SDS011;8035;51.962;7.162;2023-08-31T08:01:45;11.60;;;8.10;;
15871;SDS011;8035;51.962;7.162;2023-08-31T08:04:12;9.30;;;7.77;;
15871;SDS011;8035;51.962;7.162;2023-08-31T08:06:38;8.90;;;8.00;;
15871;SDS011;8035;51.962;7.162;2023-08-31T08:09:04;8.60;;;7.60;;
15871;SDS011;8035;51.962;7.162;2023-08-31T08:11:29;9.33;;;7.07;;
15871;SDS011;8035;51.962;7.162;2023-08-31T08:13:55;7.90;;;7.10;;
15871;SDS011;8035;51.962;7.162;2023-08-31T08:16:21;12.47;;;7.20;;
15871;SDS011;8035;51.962;7.162;2023-08-31T08:18:46;7.90;;;7.10;;
15871;SDS011;8035;51.962;7.162;2023-08-31T08:21:12;7.30;;;6.70;;
15871;SDS011;8035;51.962;7.162;2023-08-31T08:23:37;6.33;;;5.77;;
15871;SDS011;8035;51.962;7.162;2023-08-31T08:26:03;7.60;;;6.23;;
15871;SDS011;8035;51.962;7.162;2023-08-31T08:28:28;7.47;;;6.00;;
15871;SDS011;8035;51.962;7.162;2023-08-31T08:30:54;7.50;;;6.17;;
15871;SDS011;8035;51.962;7.162;2023-08-31T08:33:20;7.87;;;6.60;;
15871;SDS011;8035;51.962;7.162;2023-08-31T08:35:45;8.33;;;6.23;;
15871;SDS011;8035;51.962;7.162;2023-08-31T08:38:11;6.27;;;5.67;;
15871;SDS011;8035;51.962;7.162;2023-08-31T08:40:37;8.70;;;6.03;;
15871;SDS011;8035;51.962;7.162;2023-08-31T08:43:02;7.37;;;5.60;;
15871;SDS011;8035;51.962;7.162;2023-08-31T08:45:35;6.60;;;5.10;;
15871;SDS011;8035;51.962;7.162;2023-08-31T08:48:04;10.23;;;5.40;;
15871;SDS011;8035;51.962;7.162;2023-08-31T08:50:31;8.00;;;5.43;;
15871;SDS011;8035;51.962;7.162;2023-08-31T08:52:59;7.00;;;5.17;;
15871;SDS011;8035;51.962;7.162;2023-08-31T08:55:26;6.70;;;5.03;;
15871;SDS011;8035;51.962;7.162;2023-08-31T08:57:52;6.37;;;5.17;;
15871;SDS011;8035;51.962;7.162;2023-08-31T09:00:18;6.57;;;4.50;;
15871;SDS011;8035;51.962;7.162;2023-08-31T09:02:44;5.43;;;4.80;;
15871;SDS011;8035;51.962;7.162;2023-08-31T09:05:10;5.20;;;4.70;;
15871;SDS011;8035;51.962;7.162;2023-08-31T09:07:36;5.90;;;4.13;;
15871;SDS011;8035;51.962;7.162;2023-08-31T09:10:02;5.07;;;4.47;;
15871;SDS011;8035;51.962;7.162;2023-08-31T09:12:28;6.33;;;4.03;;
15871;SDS011;8035;51.962;7.162;2023-08-31T09:14:58;4.67;;;4.07;;
15871;SDS011;8035;51.962;7.162;2023-08-31T09:17:24;4.73;;;4.10;;
15871;SDS011;8035;51.962;7.162;2023-08-31T09:19:59;5.53;;;4.27;;
15871;SDS011;8035;51.962;7.162;2023-08-31T09:22:32;6.07;;;4.17;;
15871;SDS011;8035;51.962;7.162;2023-08-31T09:24:59;5.40;;;3.90;;
15871;SDS011;8035;51.962;7.162;2023-08-31T09:27:24;7.03;;;4.10;;
15871;SDS011;8035;51.962;7.162;2023-08-31T09:29:50;6.27;;;4.20;;
15871;SDS011;8035;51.962;7.162;2023-08-31T09:32:19;7.10;;;4.13;;
15871;SDS011;8035;51.962;7.162;2023-08-31T09:34:45;3.97;;;3.57;;
15871;SDS011;8035;51.962;7.162;2023-08-31T09:37:10;4.13;;;3.30;;
15871;SDS011;8035;51.962;7.162;2023-08-31T09:39:36;6.67;;;3.63;;
15871;SDS011;8035;51.962;7.162;2023-08-31T09:42:03;4.93;;;3.00;;
15871;SDS011;8035;51.962;7.162;2023-08-31T09:44:29;6.37;;;3.10;;
15871;SDS011;8035;51.962;7.162;2023-08-31T09:46:55;5.13;;;3.50;;
15871;SDS011;8035;51.962;7.162;2023-08-31T09:49:22;6.03;;;3.47;;
15871;SDS011;8035;51.962;7.162;2023-08-31T09:51:49;4.47;;;3.17;;
15871;SDS011;8035;51.962;7.162;2023-08-31T09:54:18;3.93;;;2.83;;
15871;SDS011;8035;51.962;7.162;2023-08-31T09:56:47;3.83;;;2.93;;
15871;SDS011;8035;51.962;7.162;2023-08-31T09:59:13;4.17;;;2.50;;
15871;SDS011;8035;51.962;7.162;2023-08-31T10:01:40;2.87;;;2.27;;
15871;SDS011;8035;51.962;7.162;2023-08-31T10:04:07;2.80;;;1.90;;
15871;SDS011;8035;51.962;7.162;2023-08-31T10:06:36;2.73;;;2.10;;
15871;SDS011;8035;51.962;7.162;2023-08-31T10:09:04;3.80;;;1.90;;
15871;SDS011;8035;51.962;7.162;2023-08-31T10:11:30;3.80;;;1.80;;
15871;SDS011;8035;51.962;7.162;2023-08-31T10:13:56;3.30;;;2.00;;
15871;SDS011;8035;51.962;7.162;2023-08-31T10:16:24;4.80;;;1.87;;
15871;SDS011;8035;51.962;7.162;2023-08-31T10:18:50;4.37;;;1.90;;
15871;SDS011;8035;51.962;7.162;2023-08-31T10:21:17;2.97;;;2.17;;
15871;SDS011;8035;51.962;7.162;2023-08-31T10:23:47;3.23;;;2.00;;
15871;SDS011;8035;51.962;7.162;2023-08-31T10:26:31;4.87;;;1.90;;
15871;SDS011;8035;51.962;7.162;2023-08-31T10:28:58;3.70;;;1.80;;
15871;SDS011;8035;51.962;7.162;2023-08-31T10:31:28;4.40;;;2.27;;
15871;SDS011;8035;51.962;7.162;2023-08-31T10:36:20;3.87;;;2.03;;
15871;SDS011;8035;51.962;7.162;2023-08-31T10:38:47;4.53;;;2.10;;
15871;SDS011;8035;51.962;7.162;2023-08-31T10:41:22;4.70;;;2.20;;
15871;SDS011;8035;51.962;7.162;2023-08-31T10:43:55;6.03;;;2.47;;
15871;SDS011;8035;51.962;7.162;2023-08-31T10:46:33;4.47;;;2.30;;
15871;SDS011;8035;51.962;7.162;2023-08-31T10:51:37;4.33;;;1.93;;
15871;SDS011;8035;51.962;7.162;2023-08-31T10:56:38;3.80;;;2.30;;
15871;SDS011;8035;51.962;7.162;2023-08-31T10:59:18;3.77;;;2.50;;
15871;SDS011;8035;51.962;7.162;2023-08-31T11:01:54;5.10;;;2.63;;
15871;SDS011;8035;51.962;7.162;2023-08-31T11:04:20;2.70;;;1.77;;
15871;SDS011;8035;51.962;7.162;2023-08-31T11:06:47;2.67;;;1.90;;
15871;SDS011;8035;51.962;7.162;2023-08-31T11:09:20;3.30;;;1.93;;
15871;SDS011;8035;51.962;7.162;2023-08-31T11:11:46;4.47;;;1.93;;
15871;SDS011;8035;51.962;7.162;2023-08-31T11:14:13;3.10;;;2.43;;
15871;SDS011;8035;51.962;7.162;2023-08-31T11:16:39;3.90;;;2.47;;
15871;SDS011;8035;51.962;7.162;2023-08-31T11:19:05;3.37;;;2.63;;
15871;SDS011;8035;51.962;7.162;2023-08-31T11:21:31;5.40;;;2.43;;
15871;SDS011;8035;51.962;7.162;2023-08-31T11:23:57;4.77;;;2.70;;
15871;SDS011;8035;51.962;7.162;2023-08-31T11:26:24;3.23;;;2.93;;
15871;SDS011;8035;51.962;7.162;2023-08-31T11:28:51;3.53;;;2.60;;
15871;SDS011;8035;51.962;7.162;2023-08-31T11:31:23;4.30;;;3.10;;
15871;SDS011;8035;51.962;7.162;2023-08-31T11:33:51;6.40;;;3.67;;
15871;SDS011;8035;51.962;7.162;2023-08-31T11:36:19;6.00;;;3.37;;
15871;SDS011;8035;51.962;7.162;2023-08-31T11:38:45;3.63;;;2.80;;
15871;SDS011;8035;51.962;7.162;2023-08-31T11:41:13;5.03;;;2.97;;
15871;SDS011;8035;51.962;7.162;2023-08-31T11:43:39;4.33;;;3.00;;
15871;SDS011;8035;51.962;7.162;2023-08-31T11:46:05;4.97;;;3.30;;
15871;SDS011;8035;51.962;7.162;2023-08-31T11:48:31;3.83;;;3.30;;
15871;SDS011;8035;51.962;7.162;2023-08-31T11:50:57;6.03;;;3.60;;
15871;SDS011;8035;51.962;7.162;2023-08-31T11:53:24;4.17;;;3.30;;
15871;SDS011;8035;51.962;7.162;2023-08-31T11:55:51;3.57;;;3.23;;
15871;SDS011;8035;51.962;7.162;2023-08-31T11:58:18;3.90;;;3.50;;
15871;SDS011;8035;51.962;7.162;2023-08-31T12:00:44;4.83;;;3.47;;
15871;SDS011;8035;51.962;7.162;2023-08-31T12:03:11;5.00;;;4.50;;
15871;SDS011;8035;51.962;7.162;2023-08-31T12:05:46;4.83;;;4.33;;
15871;SDS011;8035;51.962;7.162;2023-08-31T12:08:13;4.87;;;4.23;;
15871;SDS011;8035;51.962;7.162;2023-08-31T12:10:48;3.97;;;3.40;;
15871;SDS011;8035;51.962;7.162;2023-08-31T12:13:14;5.60;;;4.20;;
15871;SDS011;8035;51.962;7.162;2023-08-31T12:15:39;4.33;;;3.93;;
15871;SDS011;8035;51.962;7.162;2023-08-31T12:18:12;5.63;;;4.63;;
15871;SDS011;8035;51.962;7.162;2023-08-31T12:23:10;5.30;;;3.83;;
15871;SDS011;8035;51.962;7.162;2023-08-31T12:25:36;5.23;;;4.00;;
15871;SDS011;8035;51.962;7.162;2023-08-31T12:28:02;4.20;;;3.70;;
15871;SDS011;8035;51.962;7.162;2023-08-31T12:30:28;4.10;;;3.30;;
15871;SDS011;8035;51.962;7.162;2023-08-31T12:32:54;4.70;;;3.47;;
15871;SDS011;8035;51.962;7.162;2023-08-31T12:35:19;6.33;;;3.93;;
15871;SDS011;8035;51.962;7.162;2023-08-31T12:37:46;3.97;;;3.63;;
15871;SDS011;8035;51.962;7.162;2023-08-31T12:40:11;3.23;;;2.93;;
15871;SDS011;8035;51.962;7.162;2023-08-31T12:42:37;4.77;;;3.30;;
15871;SDS011;8035;51.962;7.162;2023-08-31T12:45:03;3.70;;;2.90;;
15871;SDS011;8035;51.962;7.162;2023-08-31T12:47:30;3.87;;;2.87;;
15871;SDS011;8035;51.962;7.162;2023-08-31T12:49:56;3.57;;;2.53;;
15871;SDS011;8035;51.962;7.162;2023-08-31T12:52:22;3.37;;;2.73;;
15871;SDS011;8035;51.962;7.162;2023-08-31T12:54:49;3.53;;;3.13;;
15871;SDS011;8035;51.962;7.162;2023-08-31T12:57:14;4.03;;;2.80;;
15871;SDS011;8035;51.962;7.162;2023-08-31T12:59:40;3.67;;;3.10;;
15871;SDS011;8035;51.962;7.162;2023-08-31T13:02:07;5.37;;;3.10;;
15871;SDS011;8035;51.962;7.162;2023-08-31T13:04:35;5.90;;;3.43;;
15871;SDS011;8035;51.962;7.162;2023-08-31T13:07:01;3.77;;;3.20;;
15871;SDS011;8035;51.962;7.162;2023-08-31T13:09:26;4.70;;;3.57;;
15871;SDS011;8035;51.962;7.162;2023-08-31T13:11:53;6.83;;;3.93;;
15871;SDS011;8035;51.962;7.162;2023-08-31T13:14:18;3.53;;;3.20;;
15871;SDS011;8035;51.962;7.162;2023-08-31T13:16:44;5.87;;;2.63;;
15871;SDS011;8035;51.962;7.162;2023-08-31T13:19:09;5.77;;;3.17;;
15871;SDS011;8035;51.962;7.162;2023-08-31T13:21:35;4.47;;;3.30;;
15871;SDS011;8035;51.962;7.162;2023-08-31T13:24:00;4.37;;;3.10;;
15871;SDS011;8035;51.962;7.162;2023-08-31T13:26:26;4.23;;;3.37;;
15871;SDS011;8035;51.962;7.162;2023-08-31T13:28:52;4.63;;;2.90;;
15871;SDS011;8035;51.962;7.162;2023-08-31T13:31:17;4.87;;;3.10;;
15871;SDS011;8035;51.962;7.162;2023-08-31T13:33:43;4.27;;;3.07;;
15871;SDS011;8035;51.962;7.162;2023-08-31T13:36:09;4.30;;;2.87;;
15871;SDS011;8035;51.962;7.162;2023-08-31T13:38:34;4.23;;;2.50;;
15871;SDS011;8035;51.962;7.162;2023-08-31T13:41:00;2.97;;;2.23;;
15871;SDS011;8035;51.962;7.162;2023-08-31T13:43:26;4.37;;;2.20;;
15871;SDS011;8035;51.962;7.162;2023-08-31T13:45:51;2.63;;;1.70;;
15871;SDS011;8035;51.962;7.162;2023-08-31T13:48:17;2.13;;;1.50;;
15871;SDS011;8035;51.962;7.162;2023-08-31T13:50:43;3.00;;;1.60;;
15871;SDS011;8035;51.962;7.162;2023-08-31T13:53:10;2.27;;;1.53;;
15871;SDS011;8035;51.962;7.162;2023-08-31T13:55:36;3.17;;;1.40;;
15871;SDS011;8035;51.962;7.162;2023-08-31T13:58:05;4.00;;;1.87;;
15871;SDS011;8035;51.962;7.162;2023-08-31T14:00:33;2.43;;;1.70;;
15871;SDS011;8035;51.962;7.162;2023-08-31T14:03:01;6.03;;;2.07;;
15871;SDS011;8035;51.962;7.162;2023-08-31T14:05:29;2.03;;;1.70;;
15871;SDS011;8035;51.962;7.162;2023-08-31T14:07:55;2.07;;;1.50;;
15871;SDS011;8035;51.962;7.162;2023-08-31T14:10:21;2.67;;;1.70;;
15871;SDS011;8035;51.962;7.162;2023-08-31T14:12:46;1.90;;;1.60;;
15871;SDS011;8035;51.962;7.162;2023-08-31T14:15:12;1.93;;;1.60;;
15871;SDS011;8035;51.962;7.162;2023-08-31T14:17:38;1.67;;;1.40;;
15871;SDS011;8035;51.962;7.162;2023-08-31T14:20:04;3.23;;;1.83;;
15871;SDS011;8035;51.962;7.162;2023-08-31T14:22:33;3.37;;;1.57;;
15871;SDS011;8035;51.962;7.162;2023-08-31T14:24:59;2.93;;;1.50;;
15871;SDS011;8035;51.962;7.162;2023-08-31T14:27:26;2.53;;;1.70;;
15871;SDS011;8035;51.962;7.162;2023-08-31T14:29:52;2.30;;;1.47;;
15871;SDS011;8035;51.962;7.162;2023-08-31T14:32:18;2.50;;;1.50;;
15871;SDS011;8035;51.962;7.162;2023-08-31T14:34:43;3.67;;;1.80;;
15871;SDS011;8035;51.962;7.162;2023-08-31T14:37:09;2.97;;;1.43;;
15871;SDS011;8035;51.962;7.162;2023-08-31T14:39:34;3.30;;;1.67;;
15871;SDS011;8035;51.962;7.162;2023-08-31T14:42:00;1.60;;;1.50;;
15871;SDS011;8035;51.962;7.162;2023-08-31T14:44:26;2.33;;;1.50;;
15871;SDS011;8035;51.962;7.162;2023-08-31T14:46:52;6.83;;;1.70;;
15871;SDS011;8035;51.962;7.162;2023-08-31T14:49:17;1.67;;;1.13;;
15871;SDS011;8035;51.962;7.162;2023-08-31T14:51:43;3.10;;;1.50;;
15871;SDS011;8035;51.962;7.162;2023-08-31T14:54:09;4.93;;;1.37;;
15871;SDS011;8035;51.962;7.162;2023-08-31T14:56:34;2.88;;;1.80;;
15871;SDS011;8035;51.962;7.162;2023-08-31T14:59:00;2.97;;;1.70;;
15871;SDS011;8035;51.962;7.162;2023-08-31T15:01:25;2.33;;;1.40;;
15871;SDS011;8035;51.962;7.162;2023-08-31T15:03:51;2.50;;;1.40;;
15871;SDS011;8035;51.962;7.162;2023-08-31T15:06:16;3.13;;;1.83;;
15871;SDS011;8035;51.962;7.162;2023-08-31T15:08:42;2.75;;;1.80;;